createdAt,value
2019-03-03T00:01:39.234Z,20.07
2019-03-03T00:04:08.688Z,20.20
2019-03-03T00:06:39.223Z,20.77
2019-03-03T00:09:12.938Z,22.10
2019-03-03T00:11:47.055Z,21.33
2019-03-03T00:14:21.630Z,20.93
2019-03-03T00:16:51.649Z,20.00
2019-03-03T00:19:23.273Z,21.53
2019-03-03T00:21:55.259Z,20.07
2019-03-03T00:24:24.184Z,19.10
2019-03-03T00:27:00.885Z,19.70
2019-03-03T00:29:33.230Z,20.37
2019-03-03T00:32:05.999Z,19.50
2019-03-03T00:34:48.905Z,20.53
2019-03-03T00:37:58.603Z,21.10
2019-03-03T00:40:52.430Z,19.90
2019-03-03T00:44:01.224Z,19.50
2019-03-03T00:46:49.470Z,20.47
2019-03-03T00:49:38.224Z,20.77
2019-03-03T00:52:22.210Z,20.07
2019-03-03T00:55:14.424Z,20.33
2019-03-03T00:58:11.443Z,21.97
2019-03-03T01:01:05.181Z,21.03
2019-03-03T01:03:49.330Z,19.77
2019-03-03T01:06:48.351Z,20.97
2019-03-03T01:09:57.311Z,22.23
2019-03-03T01:12:46.786Z,20.50
2019-03-03T01:15:24.151Z,21.47
2019-03-03T01:18:13.336Z,19.33
2019-03-03T01:20:56.403Z,21.27
2019-03-03T01:23:51.131Z,20.60
2019-03-03T01:26:21.331Z,20.93
2019-03-03T01:28:56.545Z,19.00
2019-03-03T01:31:29.191Z,20.50
2019-03-03T01:34:02.031Z,20.10
2019-03-03T01:36:30.346Z,19.80
2019-03-03T01:38:58.274Z,21.30
2019-03-03T01:41:26.296Z,20.77
2019-03-03T01:43:54.299Z,20.30
2019-03-03T01:46:22.365Z,21.03
2019-03-03T01:48:50.311Z,20.97
2019-03-03T01:51:18.292Z,21.00
2019-03-03T01:53:46.548Z,20.10
2019-03-03T01:56:14.543Z,21.73
2019-03-03T01:58:42.510Z,19.60
2019-03-03T02:01:10.575Z,20.50
2019-03-03T02:03:38.736Z,19.93
2019-03-03T02:06:06.791Z,19.93
2019-03-03T02:08:34.777Z,21.20
2019-03-03T02:11:02.759Z,19.80
2019-03-03T02:13:30.695Z,19.50
2019-03-03T02:15:58.684Z,20.90
2019-03-03T02:18:26.633Z,19.40
2019-03-03T02:20:54.929Z,20.40
2019-03-03T02:23:22.880Z,20.80
2019-03-03T02:25:50.962Z,20.80
2019-03-03T02:28:19.343Z,20.70
2019-03-03T02:30:47.401Z,19.83
2019-03-03T02:33:15.377Z,20.00
2019-03-03T02:35:43.365Z,20.97
2019-03-03T02:38:11.351Z,20.80
2019-03-03T02:40:39.298Z,22.03
2019-03-03T02:43:07.247Z,22.83
2019-03-03T02:45:35.241Z,22.37
2019-03-03T02:48:03.235Z,21.23
2019-03-03T02:50:31.297Z,21.70
2019-03-03T02:52:59.359Z,22.10
2019-03-03T02:55:27.227Z,21.73
2019-03-03T02:57:56.123Z,21.40
2019-03-03T03:00:24.051Z,21.80
2019-03-03T03:02:53.497Z,23.00
2019-03-03T03:05:37.529Z,22.10
2019-03-03T03:08:08.474Z,22.17
2019-03-03T03:11:10.442Z,21.73
2019-03-03T03:13:56.309Z,20.73
2019-03-03T03:16:35.940Z,22.50
2019-03-03T03:19:23.022Z,23.03
2019-03-03T03:21:58.839Z,21.40
2019-03-03T03:24:45.600Z,20.30
2019-03-03T03:27:38.330Z,21.00
2019-03-03T03:30:31.266Z,20.73
2019-03-03T03:33:05.874Z,20.87
2019-03-03T03:35:39.288Z,22.50
2019-03-03T03:38:19.610Z,23.03
2019-03-03T03:40:53.972Z,23.30
2019-03-03T03:43:35.124Z,23.87
2019-03-03T03:46:34.306Z,22.47
2019-03-03T03:49:21.236Z,22.20
2019-03-03T03:52:08.497Z,23.13
2019-03-03T03:55:02.161Z,21.70
2019-03-03T03:57:39.008Z,22.20
2019-03-03T04:00:13.407Z,23.50
2019-03-03T04:03:15.762Z,25.20
2019-03-03T04:06:02.965Z,22.03
2019-03-03T04:08:35.712Z,24.47
2019-03-03T04:11:28.722Z,23.63
2019-03-03T04:14:03.891Z,22.73
2019-03-03T04:16:43.836Z,23.10
2019-03-03T04:19:28.762Z,22.53
2019-03-03T04:22:14.520Z,21.80
2019-03-03T04:25:01.557Z,22.00
2019-03-03T04:27:42.226Z,21.97
2019-03-03T04:30:29.279Z,21.93
2019-03-03T04:33:14.913Z,22.70
2019-03-03T04:36:00.129Z,25.93
2019-03-03T04:38:39.184Z,24.90
2019-03-03T04:41:24.718Z,23.23
2019-03-03T04:44:23.964Z,23.70
2019-03-03T04:47:11.106Z,23.23
2019-03-03T04:49:53.770Z,24.13
2019-03-03T04:52:46.486Z,25.00
2019-03-03T04:55:27.275Z,25.70
2019-03-03T04:58:03.150Z,23.57
2019-03-03T05:00:50.161Z,25.20
2019-03-03T05:03:37.136Z,25.07
2019-03-03T05:06:32.227Z,24.07
2019-03-03T05:09:21.541Z,25.27
2019-03-03T05:12:38.612Z,24.50
2019-03-03T05:15:24.272Z,23.70
2019-03-03T05:17:58.199Z,25.57
2019-03-03T05:20:26.180Z,24.20
2019-03-03T05:22:54.071Z,23.40
2019-03-03T05:25:23.033Z,22.97
2019-03-03T05:27:50.980Z,22.67
2019-03-03T05:30:18.982Z,23.10
2019-03-03T05:32:46.889Z,22.37
2019-03-03T05:35:14.771Z,22.93
2019-03-03T05:37:42.713Z,24.27
2019-03-03T05:40:10.748Z,22.63
2019-03-03T05:42:38.639Z,25.03
2019-03-03T05:45:06.576Z,23.10
2019-03-03T05:47:34.517Z,23.77
2019-03-03T05:50:02.583Z,25.23
2019-03-03T05:52:30.558Z,25.13
2019-03-03T05:54:58.489Z,24.33
2019-03-03T05:57:26.427Z,22.90
2019-03-03T05:59:54.331Z,23.40
2019-03-03T06:02:22.298Z,24.53
2019-03-03T06:04:50.388Z,23.30
2019-03-03T06:07:18.261Z,25.07
2019-03-03T06:09:46.303Z,26.70
2019-03-03T06:12:14.173Z,25.43
2019-03-03T06:14:42.053Z,25.20
2019-03-03T06:17:10.045Z,25.03
2019-03-03T06:19:37.989Z,24.23
2019-03-03T06:22:06.936Z,24.07
2019-03-03T06:24:34.979Z,25.93
2019-03-03T06:27:02.967Z,27.50
2019-03-03T06:29:30.866Z,26.17
2019-03-03T06:31:58.842Z,26.43
2019-03-03T06:34:26.880Z,23.77
2019-03-03T06:36:54.777Z,25.97
2019-03-03T06:39:22.855Z,24.67
2019-03-03T06:41:50.831Z,24.53
2019-03-03T06:44:19.706Z,24.97
2019-03-03T06:46:47.649Z,23.93
2019-03-03T06:49:15.693Z,24.80
2019-03-03T06:51:43.664Z,24.20
2019-03-03T06:54:11.640Z,25.77
2019-03-03T06:56:39.634Z,25.60
2019-03-03T06:59:07.699Z,24.57
2019-03-03T07:01:35.671Z,24.00
2019-03-03T07:04:03.641Z,24.33
2019-03-03T07:06:31.694Z,24.80
2019-03-03T07:08:59.649Z,25.50
2019-03-03T07:11:27.632Z,25.70
2019-03-03T07:13:55.614Z,26.87
2019-03-03T07:16:23.688Z,29.97
2019-03-03T07:18:51.611Z,28.93
2019-03-03T07:21:19.519Z,27.03
2019-03-03T07:23:47.562Z,25.60
2019-03-03T07:26:15.559Z,26.43
2019-03-03T07:28:43.615Z,26.20
2019-03-03T07:31:11.577Z,26.63
2019-03-03T07:33:42.931Z,27.30
2019-03-03T07:36:10.911Z,28.67
2019-03-03T07:38:38.877Z,28.80
2019-03-03T07:41:06.873Z,28.53
2019-03-03T07:43:34.841Z,31.53
2019-03-03T07:46:02.902Z,30.57
2019-03-03T07:48:30.945Z,30.47
2019-03-03T07:50:58.939Z,29.60
2019-03-03T07:53:26.879Z,31.03
2019-03-03T07:55:54.895Z,28.60
2019-03-03T07:58:22.889Z,28.50
2019-03-03T08:00:50.831Z,28.70
2019-03-03T08:03:18.889Z,28.90
2019-03-03T08:05:46.959Z,28.00
2019-03-03T08:08:14.918Z,28.50
2019-03-03T08:10:42.890Z,29.77
2019-03-03T08:13:10.969Z,28.87
2019-03-03T08:15:38.921Z,30.40
2019-03-03T08:18:06.907Z,27.73
2019-03-03T08:20:34.887Z,28.73
2019-03-03T08:23:03.520Z,26.73
2019-03-03T08:25:31.637Z,27.97
2019-03-03T08:27:59.581Z,28.23
2019-03-03T08:30:27.563Z,28.00
2019-03-03T08:32:55.529Z,27.17
2019-03-03T08:35:23.588Z,29.37
2019-03-03T08:37:51.974Z,29.80
2019-03-03T08:40:19.961Z,28.37
2019-03-03T08:42:52.918Z,27.37
2019-03-03T08:45:39.928Z,29.10
2019-03-03T08:48:45.288Z,28.50
2019-03-03T08:51:31.026Z,30.03
2019-03-03T08:54:20.910Z,28.57
2019-03-03T08:57:17.380Z,29.40
2019-03-03T09:00:04.398Z,28.77
2019-03-03T09:03:03.779Z,27.73
2019-03-03T09:05:53.516Z,28.33
2019-03-03T09:08:30.164Z,29.30
2019-03-03T09:11:04.084Z,28.27
2019-03-03T09:13:53.955Z,29.40
2019-03-03T09:16:38.200Z,32.70
2019-03-03T09:19:16.509Z,31.70
2019-03-03T09:22:04.743Z,32.60
2019-03-03T09:24:50.979Z,30.97
2019-03-03T09:27:35.132Z,29.40
2019-03-03T09:30:28.037Z,29.03
2019-03-03T09:33:21.190Z,28.47
2019-03-03T09:36:14.473Z,28.60
2019-03-03T09:39:00.465Z,27.77
2019-03-03T09:41:47.527Z,29.00
2019-03-03T09:44:34.471Z,26.43
2019-03-03T09:47:16.325Z,26.27
2019-03-03T09:49:52.465Z,26.10
2019-03-03T09:52:38.315Z,25.23
2019-03-03T09:55:15.112Z,25.87
2019-03-03T09:58:02.132Z,25.00
2019-03-03T10:00:49.131Z,24.23
2019-03-03T10:03:41.983Z,23.80
2019-03-03T10:06:24.100Z,18.30
2019-03-03T10:09:09.805Z,18.03
2019-03-03T10:11:50.451Z,18.10
2019-03-03T10:14:49.775Z,20.00
2019-03-03T10:17:42.929Z,14.50
2019-03-03T10:20:23.949Z,14.80
2019-03-03T10:23:23.049Z,16.57
2019-03-03T10:26:08.066Z,14.30
2019-03-03T10:29:07.009Z,14.70
2019-03-03T10:32:06.488Z,14.33
2019-03-03T10:34:59.206Z,15.90
2019-03-03T10:37:45.155Z,16.40
2019-03-03T10:40:23.173Z,15.73
2019-03-03T10:43:13.299Z,15.73
2019-03-03T10:46:03.369Z,15.50
2019-03-03T10:48:56.677Z,15.10
2019-03-03T10:51:58.981Z,15.90
2019-03-03T10:54:41.935Z,15.83
2019-03-03T10:57:30.414Z,12.50
2019-03-03T11:00:17.472Z,13.10
2019-03-03T11:03:11.054Z,12.73
2019-03-03T11:05:48.793Z,13.03
2019-03-03T11:08:34.386Z,12.90
2019-03-03T11:11:30.201Z,14.07
2019-03-03T11:14:16.300Z,12.87
2019-03-03T11:17:02.623Z,11.80
2019-03-03T11:19:45.803Z,12.30
2019-03-03T11:22:28.134Z,12.10
2019-03-03T11:25:05.938Z,11.50
2019-03-03T11:28:11.344Z,11.10
2019-03-03T11:30:56.887Z,11.60
2019-03-03T11:33:43.819Z,11.90
2019-03-03T11:36:19.204Z,14.23
2019-03-03T11:39:04.955Z,13.03
2019-03-03T11:41:55.037Z,13.10
2019-03-03T11:44:44.956Z,12.60
2019-03-03T11:47:34.771Z,23.40
2019-03-03T11:50:20.681Z,10.63
2019-03-03T11:53:09.388Z,11.27
2019-03-03T11:55:48.085Z,11.20
2019-03-03T11:58:33.960Z,11.07
2019-03-03T12:01:26.803Z,12.10
2019-03-03T12:04:12.768Z,11.60
2019-03-03T12:06:50.608Z,12.63
2019-03-03T12:09:42.248Z,10.67
2019-03-03T12:12:38.340Z,10.40
2019-03-03T12:15:11.188Z,12.43
2019-03-03T12:18:01.429Z,10.33
2019-03-03T12:20:49.182Z,11.00
2019-03-03T12:23:27.910Z,10.97
2019-03-03T12:26:18.510Z,10.37
2019-03-03T12:29:05.176Z,10.50
2019-03-03T12:31:46.285Z,13.03
2019-03-03T12:34:43.131Z,10.30
2019-03-03T12:37:33.540Z,10.07
2019-03-03T12:40:11.635Z,9.63
2019-03-03T12:42:58.671Z,9.23
2019-03-03T12:45:37.055Z,10.90
2019-03-03T12:48:24.039Z,9.77
2019-03-03T12:51:23.187Z,9.90
2019-03-03T12:54:25.275Z,10.07
2019-03-03T12:57:05.077Z,9.70
2019-03-03T12:59:40.750Z,8.80
2019-03-03T13:02:31.103Z,9.00
2019-03-03T13:05:37.732Z,9.77
2019-03-03T13:08:43.165Z,8.03
2019-03-03T13:11:42.815Z,8.90
2019-03-03T13:14:32.510Z,8.43
2019-03-03T13:17:16.398Z,7.60
2019-03-03T13:19:53.604Z,8.00
2019-03-03T13:22:43.941Z,8.23
2019-03-03T13:25:21.165Z,8.90
2019-03-03T13:28:14.295Z,7.50
2019-03-03T13:30:59.953Z,7.90
2019-03-03T13:33:49.846Z,7.90
2019-03-03T13:36:35.932Z,9.80
2019-03-03T13:39:32.050Z,8.77
2019-03-03T13:42:28.165Z,8.70
2019-03-03T13:44:56.287Z,8.00
2019-03-03T13:47:24.284Z,7.80
2019-03-03T13:49:52.270Z,8.00
2019-03-03T13:52:20.241Z,7.90
2019-03-03T13:54:48.371Z,7.27
2019-03-03T13:57:16.567Z,7.80
2019-03-03T13:59:44.542Z,7.73
2019-03-03T14:02:13.988Z,7.73
2019-03-03T14:04:42.069Z,8.07
2019-03-03T14:07:09.969Z,9.10
2019-03-03T14:09:38.045Z,7.57
2019-03-03T14:12:06.343Z,7.40
2019-03-03T14:14:34.464Z,7.47
2019-03-03T14:17:02.494Z,8.70
2019-03-03T14:19:30.450Z,9.53
2019-03-03T14:21:58.514Z,7.87
2019-03-03T14:24:26.505Z,8.23
2019-03-03T14:26:54.543Z,8.40
2019-03-03T14:29:22.536Z,7.70
2019-03-03T14:31:50.496Z,10.27
2019-03-03T14:34:18.476Z,7.17
2019-03-03T14:36:46.471Z,7.80
2019-03-03T14:39:14.750Z,9.23
2019-03-03T14:41:42.810Z,9.23
2019-03-03T14:44:10.829Z,8.20
2019-03-03T14:46:38.859Z,8.40
2019-03-03T14:49:06.929Z,9.87
2019-03-03T14:51:34.994Z,9.20
2019-03-03T14:54:02.959Z,8.17
2019-03-03T14:56:30.973Z,7.90
2019-03-03T14:58:59.076Z,7.30
2019-03-03T15:01:27.084Z,6.77
2019-03-03T15:03:55.177Z,8.20
2019-03-03T15:06:24.692Z,8.60
2019-03-03T15:08:53.103Z,7.37
2019-03-03T15:11:21.403Z,7.77
2019-03-03T15:13:49.470Z,7.03
2019-03-03T15:16:17.451Z,7.50
2019-03-03T15:18:45.420Z,9.33
2019-03-03T15:21:24.526Z,9.70
2019-03-03T15:23:45.320Z,8.00
2019-03-03T15:26:13.413Z,6.90
2019-03-03T15:28:41.465Z,6.93
2019-03-03T15:31:09.844Z,7.37
2019-03-03T15:33:37.961Z,7.10
2019-03-03T15:36:05.976Z,6.80
2019-03-03T15:38:33.966Z,7.37
2019-03-03T15:41:01.912Z,7.30
2019-03-03T15:43:29.827Z,7.33
2019-03-03T15:45:57.767Z,7.17
2019-03-03T15:48:25.836Z,7.00
2019-03-03T15:50:53.900Z,8.60
2019-03-03T15:53:21.883Z,6.97
2019-03-03T15:55:49.863Z,7.00
2019-03-03T15:58:17.833Z,7.13
2019-03-03T16:00:45.987Z,9.37
2019-03-03T16:03:13.949Z,9.00
2019-03-03T16:05:41.980Z,9.50
2019-03-03T16:08:09.992Z,14.90
2019-03-03T16:10:37.942Z,10.27
2019-03-03T16:13:06.031Z,9.53
2019-03-03T16:15:34.140Z,8.90
2019-03-03T16:18:02.585Z,8.77
2019-03-03T16:20:30.626Z,7.80
2019-03-03T16:22:58.684Z,7.83
2019-03-03T16:25:26.731Z,7.73
2019-03-03T16:27:54.775Z,8.40
2019-03-03T16:30:22.961Z,8.40
2019-03-03T16:32:50.923Z,9.20
2019-03-03T16:35:18.991Z,7.90
2019-03-03T16:37:47.083Z,7.80
2019-03-03T16:40:16.221Z,7.67
2019-03-03T16:42:44.242Z,7.87
2019-03-03T16:45:12.826Z,7.17
2019-03-03T16:47:40.877Z,8.20
2019-03-03T16:50:09.875Z,7.80
2019-03-03T16:52:37.869Z,7.07
2019-03-03T16:55:06.005Z,7.70
2019-03-03T16:57:33.994Z,7.47
2019-03-03T17:00:02.010Z,7.10
2019-03-03T17:02:29.979Z,7.30
2019-03-03T17:04:57.981Z,7.40
2019-03-03T17:07:26.010Z,7.70
2019-03-03T17:09:53.931Z,8.40
2019-03-03T17:12:21.914Z,8.07
2019-03-03T17:14:49.922Z,8.20
2019-03-03T17:17:18.285Z,9.20
2019-03-03T17:19:46.669Z,8.47
2019-03-03T17:22:14.781Z,8.27
2019-03-03T17:24:43.276Z,7.93
2019-03-03T17:27:11.700Z,7.90
2019-03-03T17:29:39.937Z,8.47
2019-03-03T17:32:08.903Z,8.90
2019-03-03T17:34:37.372Z,9.10
2019-03-03T17:37:05.976Z,9.10
2019-03-03T17:39:33.956Z,8.77
2019-03-03T17:42:02.252Z,10.53
2019-03-03T17:44:30.296Z,8.73
2019-03-03T17:46:58.224Z,9.10
2019-03-03T17:49:26.267Z,8.73
2019-03-03T17:51:54.235Z,8.70
2019-03-03T17:54:22.182Z,9.30
2019-03-03T17:56:50.157Z,8.83
2019-03-03T17:59:18.117Z,8.60
2019-03-03T18:01:46.140Z,8.33
2019-03-03T18:04:14.051Z,8.37
2019-03-03T18:06:42.103Z,8.60
2019-03-03T18:09:10.014Z,8.30
2019-03-03T18:11:38.075Z,8.93
2019-03-03T18:14:06.076Z,8.70
2019-03-03T18:16:34.104Z,9.20
2019-03-03T18:19:02.078Z,9.80
2019-03-03T18:21:30.059Z,8.63
2019-03-03T18:23:58.074Z,8.80
2019-03-03T18:26:26.113Z,9.07
2019-03-03T18:28:54.307Z,8.73
2019-03-03T18:31:22.273Z,9.23
2019-03-03T18:33:50.328Z,10.50
2019-03-03T18:36:18.501Z,12.27
2019-03-03T18:38:46.527Z,11.10
2019-03-03T18:41:14.589Z,11.90
2019-03-03T18:43:42.528Z,12.30
2019-03-03T18:46:10.591Z,15.40
2019-03-03T18:48:38.666Z,14.40
2019-03-03T18:51:06.733Z,17.70
2019-03-03T18:53:34.914Z,14.40
2019-03-03T18:56:02.871Z,13.30
2019-03-03T18:58:30.972Z,13.60
2019-03-03T19:00:58.945Z,11.80
2019-03-03T19:03:26.911Z,11.40
2019-03-03T19:05:56.042Z,12.60
2019-03-03T19:08:25.582Z,12.07
2019-03-03T19:10:53.683Z,11.87
2019-03-03T19:13:21.627Z,13.10
2019-03-03T19:15:49.728Z,13.30
2019-03-03T19:18:17.733Z,11.50
2019-03-03T19:20:45.838Z,12.13
2019-03-03T19:23:13.883Z,12.23
2019-03-03T19:25:41.909Z,12.77
2019-03-03T19:28:09.833Z,12.70
2019-03-03T19:30:37.833Z,12.80
2019-03-03T19:33:10.133Z,13.07
2019-03-03T19:35:38.227Z,12.10
2019-03-03T19:38:06.298Z,13.40
2019-03-03T19:40:34.279Z,14.33
2019-03-03T19:43:02.282Z,15.90
2019-03-03T19:45:31.077Z,12.37
2019-03-03T19:47:59.246Z,12.30
2019-03-03T19:50:27.288Z,10.90
2019-03-03T19:52:55.339Z,10.13
2019-03-03T19:55:23.433Z,9.43
2019-03-03T19:57:51.586Z,10.30
2019-03-03T20:00:20.925Z,11.97
2019-03-03T20:02:48.915Z,11.30
2019-03-03T20:05:17.091Z,11.10
2019-03-03T20:07:45.167Z,15.00
2019-03-03T20:10:13.421Z,13.80
2019-03-03T20:12:41.925Z,13.67
2019-03-03T20:15:09.969Z,12.60
2019-03-03T20:17:38.097Z,18.77
2019-03-03T20:20:07.196Z,20.87
2019-03-03T20:22:37.540Z,14.70
2019-03-03T20:25:05.219Z,15.90
2019-03-03T20:27:33.300Z,14.50
2019-03-03T20:30:01.248Z,13.30
2019-03-03T20:32:29.217Z,13.63
2019-03-03T20:34:57.387Z,13.43
2019-03-03T20:37:25.349Z,11.70
2019-03-03T20:39:53.473Z,14.57
2019-03-03T20:42:21.427Z,13.00
2019-03-03T20:44:49.338Z,13.87
2019-03-03T20:47:17.280Z,12.63
2019-03-03T20:49:45.219Z,13.80
2019-03-03T20:52:13.191Z,14.33
2019-03-03T20:54:41.255Z,14.30
2019-03-03T20:57:09.372Z,13.67
2019-03-03T20:59:37.488Z,11.77
2019-03-03T21:02:05.536Z,13.70
2019-03-03T21:04:33.466Z,12.60
2019-03-03T21:07:01.571Z,13.30
2019-03-03T21:09:29.472Z,14.17
2019-03-03T21:11:57.564Z,14.63
2019-03-03T21:14:25.609Z,14.70
2019-03-03T21:16:53.568Z,12.17
2019-03-03T21:19:21.581Z,13.93
2019-03-03T21:21:49.580Z,13.90
2019-03-03T21:24:17.669Z,12.93
2019-03-03T21:26:45.913Z,13.27
2019-03-03T21:29:14.081Z,13.30
2019-03-03T21:31:42.146Z,11.73
2019-03-03T21:34:10.239Z,12.53
2019-03-03T21:36:38.450Z,11.93
2019-03-03T21:39:07.666Z,12.70
2019-03-03T21:41:35.832Z,12.37
2019-03-03T21:44:03.830Z,12.90
2019-03-03T21:46:32.599Z,10.70
2019-03-03T21:49:00.761Z,11.93
2019-03-03T21:51:29.084Z,13.77
2019-03-03T21:53:57.314Z,13.03
2019-03-03T21:56:25.302Z,12.70
2019-03-03T21:58:53.381Z,12.90
2019-03-03T22:01:21.304Z,12.90
2019-03-03T22:03:49.311Z,13.30
2019-03-03T22:06:17.293Z,12.80
2019-03-03T22:08:45.404Z,13.07
2019-03-03T22:11:13.577Z,13.10
2019-03-03T22:13:41.892Z,12.33
2019-03-03T22:16:09.951Z,12.60
2019-03-03T22:18:37.949Z,13.37
2019-03-03T22:21:06.040Z,12.07
2019-03-03T22:23:34.127Z,11.83
2019-03-03T22:26:02.152Z,11.90
2019-03-03T22:28:30.149Z,11.63
2019-03-03T22:30:58.603Z,11.40
2019-03-03T22:33:26.586Z,10.47
2019-03-03T22:35:54.629Z,10.50
2019-03-03T22:38:22.587Z,12.40
2019-03-03T22:40:50.632Z,11.27
2019-03-03T22:43:18.549Z,11.50
2019-03-03T22:45:46.703Z,11.37
2019-03-03T22:48:15.353Z,12.20
2019-03-03T22:50:43.365Z,11.67
2019-03-03T22:53:11.589Z,12.20
2019-03-03T22:55:40.462Z,12.90
2019-03-03T22:58:08.783Z,12.50
2019-03-03T23:00:45.692Z,12.67
2019-03-03T23:03:14.900Z,12.10
2019-03-03T23:05:52.542Z,10.83
2019-03-03T23:08:26.600Z,11.30
2019-03-03T23:11:19.608Z,11.47
2019-03-03T23:13:50.388Z,10.57
2019-03-03T23:16:36.190Z,10.27
2019-03-03T23:19:21.249Z,10.73
2019-03-03T23:22:08.328Z,11.70
2019-03-03T23:24:58.432Z,11.80
2019-03-03T23:27:26.509Z,12.30
2019-03-03T23:29:54.538Z,12.57
2019-03-03T23:32:22.641Z,12.00
2019-03-03T23:34:50.611Z,11.10
2019-03-03T23:37:18.593Z,11.70
2019-03-03T23:39:46.622Z,12.17
2019-03-03T23:42:14.654Z,10.70
2019-03-03T23:44:42.739Z,11.03
2019-03-03T23:47:10.710Z,10.87
2019-03-03T23:49:39.770Z,10.30
2019-03-03T23:52:07.755Z,10.87
2019-03-03T23:54:35.720Z,11.90
2019-03-03T23:57:03.808Z,11.60
2019-03-03T23:59:31.795Z,10.43
